createdAt,value
2018-02-19T00:00:10.209Z,83.10
2018-02-19T00:01:10.212Z,82.44
2018-02-19T00:02:10.230Z,82.44
2018-02-19T00:03:10.240Z,82.53
2018-02-19T00:04:10.256Z,82.53
2018-02-19T00:05:10.263Z,82.25
2018-02-19T00:06:10.278Z,82.44
2018-02-19T00:07:10.289Z,82.63
2018-02-19T00:08:10.298Z,82.34
2018-02-19T00:09:10.311Z,82.44
2018-02-19T00:10:10.322Z,82.44
2018-02-19T00:11:10.332Z,82.34
2018-02-19T00:12:10.351Z,82.34
2018-02-19T00:13:10.365Z,82.44
2018-02-19T00:14:10.366Z,81.96
2018-02-19T00:15:10.378Z,82.06
2018-02-19T00:16:10.394Z,82.12
2018-02-19T00:17:10.405Z,82.87
2018-02-19T00:18:10.415Z,83.01
2018-02-19T00:19:10.428Z,82.34
2018-02-19T00:20:10.440Z,82.53
2018-02-19T00:21:10.451Z,82.44
2018-02-19T00:22:10.461Z,82.59
2018-02-19T00:23:10.477Z,82.50
2018-02-19T00:24:10.490Z,82.34
2018-02-19T00:25:10.498Z,82.25
2018-02-19T00:26:10.510Z,82.06
2018-02-19T00:27:10.523Z,81.49
2018-02-19T00:28:10.540Z,81.77
2018-02-19T00:29:10.546Z,81.40
2018-02-19T00:30:10.561Z,82.15
2018-02-19T00:31:10.573Z,81.96
2018-02-19T00:32:10.584Z,81.87
2018-02-19T00:33:10.604Z,81.77
2018-02-19T00:34:10.606Z,81.77
2018-02-19T00:35:10.621Z,81.59
2018-02-19T00:36:10.632Z,81.49
2018-02-19T00:37:10.642Z,81.59
2018-02-19T00:38:10.656Z,81.36
2018-02-19T00:39:10.666Z,81.55
2018-02-19T00:40:10.682Z,81.64
2018-02-19T00:41:10.688Z,82.12
2018-02-19T00:42:10.701Z,81.64
2018-02-19T00:43:10.714Z,81.64
2018-02-19T00:44:10.724Z,81.87
2018-02-19T00:45:10.734Z,81.55
2018-02-19T00:46:10.747Z,81.36
2018-02-19T00:47:10.761Z,82.21
2018-02-19T00:48:10.777Z,81.55
2018-02-19T00:49:10.783Z,81.93
2018-02-19T00:50:10.796Z,81.59
2018-02-19T00:51:10.806Z,81.64
2018-02-19T00:52:10.824Z,81.36
2018-02-19T00:53:10.832Z,81.26
2018-02-19T00:54:10.883Z,81.55
2018-02-19T00:55:10.854Z,81.26
2018-02-19T00:56:10.869Z,81.93
2018-02-19T00:57:10.878Z,81.55
2018-02-19T00:58:10.889Z,81.93
2018-02-19T00:59:10.951Z,81.64
2018-02-19T01:00:10.914Z,81.64
2018-02-19T01:01:10.924Z,80.98
2018-02-19T01:02:10.939Z,81.40
2018-02-19T01:03:10.949Z,81.36
2018-02-19T01:04:10.962Z,81.55
2018-02-19T01:05:10.972Z,81.83
2018-02-19T01:06:10.984Z,82.12
2018-02-19T01:07:10.996Z,81.55
2018-02-19T01:08:11.013Z,81.36
2018-02-19T01:09:11.019Z,81.55
2018-02-19T01:10:11.050Z,81.55
2018-02-19T01:11:11.046Z,81.55
2018-02-19T01:12:11.060Z,81.83
2018-02-19T01:13:11.065Z,81.55
2018-02-19T01:14:11.077Z,81.64
2018-02-19T01:15:11.090Z,81.55
2018-02-19T01:16:11.105Z,81.64
2018-02-19T01:17:11.116Z,81.36
2018-02-19T01:18:11.131Z,81.26
2018-02-19T01:19:11.135Z,81.26
2018-02-19T01:20:11.147Z,80.98
2018-02-19T01:21:11.161Z,80.98
2018-02-19T01:22:11.172Z,80.88
2018-02-19T01:23:11.183Z,81.17
2018-02-19T01:24:11.193Z,80.98
2018-02-19T01:25:11.204Z,81.07
2018-02-19T01:26:11.219Z,80.69
2018-02-19T01:27:11.231Z,81.07
2018-02-19T01:28:11.245Z,80.88
2018-02-19T01:29:11.255Z,81.07
2018-02-19T01:30:11.272Z,80.88
2018-02-19T01:31:11.278Z,80.98
2018-02-19T01:32:11.290Z,80.88
2018-02-19T01:33:11.298Z,81.93
2018-02-19T01:34:11.310Z,81.55
2018-02-19T01:35:11.324Z,81.36
2018-02-19T01:36:11.335Z,81.17
2018-02-19T01:37:11.345Z,81.45
2018-02-19T01:38:11.358Z,81.55
2018-02-19T01:39:11.368Z,81.17
2018-02-19T01:40:11.383Z,81.55
2018-02-19T01:41:11.390Z,81.17
2018-02-19T01:42:11.404Z,80.60
2018-02-19T01:43:11.414Z,80.88
2018-02-19T01:44:11.430Z,80.98
2018-02-19T01:45:11.442Z,80.98
2018-02-19T01:46:11.452Z,81.17
2018-02-19T01:47:11.462Z,81.36
2018-02-19T01:48:11.475Z,80.98
2018-02-19T01:49:11.486Z,81.26
2018-02-19T01:50:11.498Z,80.88
2018-02-19T01:51:11.508Z,80.88
2018-02-19T01:52:11.523Z,80.98
2018-02-19T01:53:11.533Z,81.17
2018-02-19T01:54:11.545Z,80.88
2018-02-19T01:55:11.555Z,81.17
2018-02-19T01:56:11.568Z,80.88
2018-02-19T01:57:11.587Z,80.88
2018-02-19T01:58:11.595Z,80.88
2018-02-19T01:59:11.603Z,80.69
2018-02-19T02:00:11.616Z,80.98
2018-02-19T02:01:11.628Z,81.17
2018-02-19T02:02:11.640Z,81.17
2018-02-19T02:03:11.655Z,81.17
2018-02-19T02:04:11.664Z,81.17
2018-02-19T02:05:11.674Z,80.98
2018-02-19T02:06:11.684Z,81.26
2018-02-19T02:07:11.695Z,81.07
2018-02-19T02:08:11.709Z,80.98
2018-02-19T02:09:11.727Z,80.88
2018-02-19T02:10:11.732Z,80.98
2018-02-19T02:11:11.747Z,80.88
2018-02-19T02:12:11.757Z,81.36
2018-02-19T02:13:11.767Z,80.60
2018-02-19T02:14:11.783Z,81.07
2018-02-19T02:15:11.789Z,81.55
2018-02-19T02:16:11.801Z,81.74
2018-02-19T02:17:11.814Z,81.64
2018-02-19T02:18:11.829Z,81.74
2018-02-19T02:19:11.840Z,81.36
2018-02-19T02:20:11.850Z,81.36
2018-02-19T02:21:11.914Z,81.55
2018-02-19T02:22:11.875Z,81.36
2018-02-19T02:23:11.884Z,81.26
2018-02-19T02:24:11.897Z,81.64
2018-02-19T02:25:11.906Z,81.36
2018-02-19T02:26:11.916Z,81.45
2018-02-19T02:27:11.930Z,81.36
2018-02-19T02:28:11.943Z,81.45
2018-02-19T02:29:11.954Z,80.98
2018-02-19T02:30:11.964Z,81.07
2018-02-19T02:31:11.982Z,81.26
2018-02-19T02:32:11.990Z,81.17
2018-02-19T02:33:12.001Z,81.45
2018-02-19T02:34:12.024Z,80.98
2018-02-19T02:35:12.079Z,81.55
2018-02-19T02:36:12.193Z,81.55
2018-02-19T02:37:12.051Z,80.98
2018-02-19T02:38:12.063Z,81.26
2018-02-19T02:39:12.074Z,81.36
2018-02-19T02:40:12.085Z,81.64
2018-02-19T02:41:12.093Z,81.74
2018-02-19T02:42:12.116Z,81.74
2018-02-19T02:43:12.116Z,81.64
2018-02-19T02:44:12.131Z,81.40
2018-02-19T02:45:12.141Z,81.07
2018-02-19T02:46:12.155Z,80.69
2018-02-19T02:47:12.166Z,81.36
2018-02-19T02:48:12.179Z,80.88
2018-02-19T02:49:12.190Z,80.93
2018-02-19T02:50:12.197Z,80.51
2018-02-19T02:51:12.212Z,80.98
2018-02-19T02:52:12.228Z,80.98
2018-02-19T02:53:12.253Z,81.36
2018-02-19T02:54:12.244Z,80.98
2018-02-19T02:55:12.258Z,81.36
2018-02-19T02:56:12.275Z,81.36
2018-02-19T02:57:12.281Z,81.17
2018-02-19T02:58:12.291Z,81.30
2018-02-19T02:59:12.304Z,81.45
2018-02-19T03:00:12.317Z,81.93
2018-02-19T03:01:12.328Z,81.74
2018-02-19T03:02:12.339Z,81.45
2018-02-19T03:03:12.354Z,81.64
2018-02-19T03:04:12.364Z,81.17
2018-02-19T03:05:12.375Z,81.64
2018-02-19T03:06:12.390Z,80.98
2018-02-19T03:07:12.399Z,80.98
2018-02-19T03:08:12.411Z,81.02
2018-02-19T03:09:12.422Z,81.07
2018-02-19T03:10:12.438Z,81.30
2018-02-19T03:11:12.448Z,80.64
2018-02-19T03:12:12.456Z,80.74
2018-02-19T03:13:12.472Z,80.88
2018-02-19T03:14:12.482Z,81.02
2018-02-19T03:15:12.496Z,81.21
2018-02-19T03:16:12.510Z,81.12
2018-02-19T03:17:12.517Z,81.21
2018-02-19T03:18:12.529Z,80.83
2018-02-19T03:19:12.541Z,80.93
2018-02-19T03:20:12.551Z,81.02
2018-02-19T03:21:12.566Z,81.21
2018-02-19T03:22:12.575Z,81.21
2018-02-19T03:23:12.588Z,80.74
2018-02-19T03:24:12.599Z,80.45
2018-02-19T03:25:12.614Z,80.74
2018-02-19T03:26:12.622Z,80.64
2018-02-19T03:27:12.635Z,80.93
2018-02-19T03:28:12.649Z,80.74
2018-02-19T03:29:12.660Z,81.21
2018-02-19T03:30:12.673Z,81.21
2018-02-19T03:31:12.687Z,81.12
2018-02-19T03:32:12.693Z,80.74
2018-02-19T03:33:12.709Z,80.93
2018-02-19T03:34:12.717Z,81.21
2018-02-19T03:35:12.729Z,81.02
2018-02-19T03:36:12.742Z,81.30
2018-02-19T03:37:12.772Z,81.02
2018-02-19T03:38:12.767Z,81.12
2018-02-19T03:39:12.776Z,81.30
2018-02-19T03:40:12.789Z,81.21
2018-02-19T03:41:12.801Z,81.12
2018-02-19T03:42:12.813Z,80.55
2018-02-19T03:43:12.822Z,81.12
2018-02-19T03:44:12.838Z,80.93
2018-02-19T03:45:12.849Z,80.93
2018-02-19T03:46:12.863Z,80.93
2018-02-19T03:47:12.868Z,80.88
2018-02-19T03:48:12.884Z,81.17
2018-02-19T03:49:12.894Z,81.55
2018-02-19T03:50:12.906Z,81.26
2018-02-19T03:51:12.918Z,81.55
2018-02-19T03:52:12.933Z,81.26
2018-02-19T03:53:12.943Z,80.88
2018-02-19T03:54:12.958Z,80.60
2018-02-19T03:55:12.966Z,80.98
2018-02-19T03:56:12.977Z,81.45
2018-02-19T03:57:12.987Z,81.74
2018-02-19T03:58:13.001Z,81.26
2018-02-19T03:59:13.074Z,81.36
2018-02-19T04:00:13.026Z,81.26
2018-02-19T04:01:13.035Z,81.17
2018-02-19T04:02:13.050Z,81.55
2018-02-19T04:03:13.065Z,81.45
2018-02-19T04:04:13.083Z,81.74
2018-02-19T04:05:13.083Z,81.59
2018-02-19T04:06:13.093Z,81.36
2018-02-19T04:07:13.109Z,81.36
2018-02-19T04:08:13.117Z,81.07
2018-02-19T04:09:13.129Z,81.07
2018-02-19T04:10:13.140Z,80.88
2018-02-19T04:11:13.157Z,81.17
2018-02-19T04:12:13.166Z,80.69
2018-02-19T04:13:13.175Z,80.60
2018-02-19T04:14:13.191Z,80.88
2018-02-19T04:15:13.200Z,81.36
2018-02-19T04:16:13.213Z,81.74
2018-02-19T04:17:13.222Z,81.36
2018-02-19T04:18:13.238Z,80.98
2018-02-19T04:19:13.250Z,80.98
2018-02-19T04:20:13.259Z,80.69
2018-02-19T04:21:13.272Z,81.12
2018-02-19T04:22:13.282Z,81.21
2018-02-19T04:23:13.305Z,80.98
2018-02-19T04:24:13.302Z,80.88
2018-02-19T04:25:13.317Z,80.69
2018-02-19T04:26:13.330Z,80.88
2018-02-19T04:27:13.342Z,81.26
2018-02-19T04:28:13.352Z,80.98
2018-02-19T04:29:13.367Z,80.98
2018-02-19T04:30:13.380Z,80.88
2018-02-19T04:31:13.388Z,80.98
2018-02-19T04:32:13.404Z,81.17
2018-02-19T04:33:13.407Z,81.17
2018-02-19T04:34:13.419Z,81.17
2018-02-19T04:35:13.438Z,81.21
2018-02-19T04:36:13.444Z,81.07
2018-02-19T04:37:13.462Z,81.07
2018-02-19T04:38:13.470Z,81.12
2018-02-19T04:39:13.488Z,80.93
2018-02-19T04:40:13.493Z,81.12
2018-02-19T04:41:13.504Z,80.93
2018-02-19T04:42:13.571Z,81.02
2018-02-19T04:43:13.527Z,81.02
2018-02-19T04:44:13.540Z,81.02
2018-02-19T04:45:13.553Z,81.07
2018-02-19T04:46:13.565Z,81.59
2018-02-19T04:47:13.575Z,81.12
2018-02-19T04:48:13.589Z,80.64
2018-02-19T04:49:13.599Z,81.30
2018-02-19T04:50:13.611Z,80.93
2018-02-19T04:51:13.625Z,80.64
2018-02-19T04:52:13.634Z,80.55
2018-02-19T04:53:13.646Z,80.55
2018-02-19T04:54:13.660Z,80.64
2018-02-19T04:55:13.669Z,80.45
2018-02-19T04:56:13.683Z,80.26
2018-02-19T04:57:13.701Z,80.45
2018-02-19T04:58:13.704Z,79.98
2018-02-19T04:59:13.719Z,80.45
2018-02-19T05:00:13.730Z,80.36
2018-02-19T05:01:13.738Z,80.07
2018-02-19T05:02:13.751Z,80.26
2018-02-19T05:03:13.766Z,80.26
2018-02-19T05:04:13.776Z,80.45
2018-02-19T05:05:13.791Z,80.26
2018-02-19T05:06:13.803Z,79.88
2018-02-19T05:07:13.810Z,80.26
2018-02-19T05:08:13.827Z,80.74
2018-02-19T05:09:13.837Z,80.36
2018-02-19T05:10:13.849Z,79.98
2018-02-19T05:11:13.860Z,80.17
2018-02-19T05:12:13.873Z,80.26
2018-02-19T05:13:13.888Z,79.88
2018-02-19T05:14:13.896Z,80.17
2018-02-19T05:15:13.908Z,80.36
2018-02-19T05:16:13.924Z,80.74
2018-02-19T05:17:13.930Z,81.40
2018-02-19T05:18:13.941Z,81.21
2018-02-19T05:19:13.960Z,80.64
2018-02-19T05:20:13.968Z,80.74
2018-02-19T05:21:13.979Z,80.55
2018-02-19T05:22:13.992Z,80.64
2018-02-19T05:23:14.000Z,80.74
2018-02-19T05:24:14.013Z,81.07
2018-02-19T05:25:14.023Z,81.59
2018-02-19T05:26:14.039Z,81.77
2018-02-19T05:27:14.072Z,81.30
2018-02-19T05:28:14.061Z,81.02
2018-02-19T05:29:14.071Z,80.64
2018-02-19T05:30:14.084Z,81.02
2018-02-19T05:31:14.186Z,80.74
2018-02-19T05:32:14.107Z,80.74
2018-02-19T05:33:14.120Z,80.55
2018-02-19T05:34:14.132Z,80.64
2018-02-19T05:35:14.145Z,80.55
2018-02-19T05:36:14.155Z,81.02
2018-02-19T05:37:14.166Z,81.12
2018-02-19T05:38:14.185Z,81.02
2018-02-19T05:39:14.191Z,80.45
2018-02-19T05:40:14.204Z,80.55
2018-02-19T05:41:14.212Z,80.93
2018-02-19T05:42:14.227Z,80.26
2018-02-19T05:43:14.241Z,80.36
2018-02-19T05:44:14.254Z,79.69
2018-02-19T05:45:14.263Z,79.79
2018-02-19T05:46:14.275Z,79.69
2018-02-19T05:47:14.287Z,79.13
2018-02-19T05:48:14.299Z,79.41
2018-02-19T05:49:14.311Z,79.03
2018-02-19T05:50:14.321Z,79.41
2018-02-19T05:51:14.335Z,79.60
2018-02-19T05:52:14.345Z,80.17
2018-02-19T05:53:14.357Z,80.26
2018-02-19T05:54:14.371Z,79.98
2018-02-19T05:55:14.383Z,79.79
2018-02-19T05:56:14.394Z,79.98
2018-02-19T05:57:14.407Z,79.69
2018-02-19T05:58:14.418Z,79.50
2018-02-19T05:59:14.428Z,79.60
2018-02-19T06:00:14.441Z,78.85
2018-02-19T06:01:14.454Z,78.98
2018-02-19T06:02:14.464Z,78.79
2018-02-19T06:03:14.480Z,78.65
2018-02-19T06:04:14.487Z,79.13
2018-02-19T06:05:14.506Z,79.13
2018-02-19T06:06:14.513Z,78.59
2018-02-19T06:07:14.524Z,78.98
2018-02-19T06:08:14.537Z,78.88
2018-02-19T06:09:14.551Z,78.69
2018-02-19T06:10:14.565Z,78.98
2018-02-19T06:11:14.574Z,79.03
2018-02-19T06:12:14.592Z,80.07
2018-02-19T06:13:14.601Z,80.83
2018-02-19T06:14:14.605Z,80.17
2018-02-19T06:15:14.618Z,80.55
2018-02-19T06:16:14.630Z,80.45
2018-02-19T06:17:14.645Z,80.45
2018-02-19T06:18:14.655Z,80.45
2018-02-19T06:19:14.673Z,80.36
2018-02-19T06:20:14.681Z,79.98
2018-02-19T06:21:14.696Z,79.41
2018-02-19T06:22:14.703Z,79.50
2018-02-19T06:23:14.718Z,79.22
2018-02-19T06:24:14.730Z,79.17
2018-02-19T06:25:14.739Z,78.69
2018-02-19T06:26:14.753Z,78.79
2018-02-19T06:27:14.768Z,78.88
2018-02-19T06:28:14.778Z,79.13
2018-02-19T06:29:14.795Z,79.36
2018-02-19T06:30:14.801Z,79.41
2018-02-19T06:31:14.815Z,79.36
2018-02-19T06:32:14.827Z,79.74
2018-02-19T06:33:14.838Z,79.17
2018-02-19T06:34:14.851Z,79.32
2018-02-19T06:35:14.859Z,79.79
2018-02-19T06:36:14.873Z,80.36
2018-02-19T06:37:14.883Z,80.64
2018-02-19T06:38:14.898Z,80.45
2018-02-19T06:39:14.910Z,80.64
2018-02-19T06:40:14.922Z,79.88
2018-02-19T06:41:14.936Z,79.74
2018-02-19T06:42:14.945Z,79.26
2018-02-19T06:43:14.960Z,79.83
2018-02-19T06:44:14.970Z,78.79
2018-02-19T06:45:14.983Z,78.50
2018-02-19T06:46:14.998Z,78.79
2018-02-19T06:47:15.005Z,78.13
2018-02-19T06:48:15.020Z,78.13
2018-02-19T06:49:15.030Z,78.31
2018-02-19T06:50:15.044Z,78.41
2018-02-19T06:51:15.057Z,77.94
2018-02-19T06:52:15.080Z,77.75
2018-02-19T06:53:15.078Z,77.84
2018-02-19T06:54:15.093Z,77.84
2018-02-19T06:55:15.103Z,77.75
2018-02-19T06:56:15.117Z,77.56
2018-02-19T06:57:15.127Z,77.37
2018-02-19T06:58:15.141Z,77.37
2018-02-19T06:59:15.152Z,77.18
2018-02-19T07:00:15.174Z,77.27
2018-02-19T07:01:15.174Z,77.46
2018-02-19T07:02:15.187Z,77.75
2018-02-19T07:03:15.201Z,76.89
2018-02-19T07:04:15.211Z,77.08
2018-02-19T07:05:15.226Z,77.46
2018-02-19T07:06:15.241Z,78.03
2018-02-19T07:07:15.251Z,77.56
2018-02-19T07:08:15.271Z,77.37
2018-02-19T07:09:15.275Z,77.46
2018-02-19T07:10:15.289Z,77.84
2018-02-19T07:11:15.301Z,77.75
2018-02-19T07:12:15.319Z,78.41
2018-02-19T07:13:15.327Z,77.84
2018-02-19T07:14:15.342Z,77.56
2018-02-19T07:15:15.353Z,76.99
2018-02-19T07:16:15.366Z,77.08
2018-02-19T07:17:15.449Z,77.18
2018-02-19T07:18:15.388Z,77.75
2018-02-19T07:19:15.405Z,77.94
2018-02-19T07:20:15.415Z,78.31
2018-02-19T07:21:15.438Z,78.03
2018-02-19T07:22:15.440Z,77.84
2018-02-19T07:23:15.456Z,77.69
2018-02-19T07:24:15.464Z,77.03
2018-02-19T07:25:15.482Z,77.31
2018-02-19T07:26:15.490Z,77.18
2018-02-19T07:27:15.501Z,77.03
2018-02-19T07:28:15.515Z,76.99
2018-02-19T07:29:15.530Z,77.56
2018-02-19T07:30:15.541Z,77.94
2018-02-19T07:31:15.554Z,77.56
2018-02-19T07:32:15.566Z,77.84
2018-02-19T07:33:15.594Z,77.56
2018-02-19T07:34:15.590Z,77.65
2018-02-19T07:35:15.605Z,78.03
2018-02-19T07:36:15.613Z,78.79
2018-02-19T07:37:15.627Z,78.69
2018-02-19T07:38:15.640Z,78.13
2018-02-19T07:39:15.654Z,78.22
2018-02-19T07:40:15.667Z,78.50
2018-02-19T07:41:15.678Z,77.75
2018-02-19T07:42:15.693Z,77.94
2018-02-19T07:43:15.705Z,77.84
2018-02-19T07:44:15.779Z,78.41
2018-02-19T07:45:15.729Z,78.13
2018-02-19T07:46:15.745Z,77.75
2018-02-19T07:47:15.757Z,77.40
2018-02-19T07:48:15.768Z,77.78
2018-02-19T07:49:15.777Z,76.84
2018-02-19T07:50:15.817Z,76.36
2018-02-19T07:51:15.811Z,76.84
2018-02-19T07:52:15.816Z,77.18
2018-02-19T07:53:15.837Z,76.89
2018-02-19T07:54:15.843Z,77.84
2018-02-19T07:55:15.857Z,78.88
2018-02-19T07:56:15.871Z,78.98
2018-02-19T07:57:15.886Z,78.79
2018-02-19T07:58:15.894Z,78.50
2018-02-19T07:59:15.907Z,78.88
2018-02-19T08:00:15.955Z,79.36
2018-02-19T08:01:15.934Z,78.69
2018-02-19T08:02:15.946Z,78.79
2018-02-19T08:03:15.959Z,78.59
2018-02-19T08:04:15.971Z,78.79
2018-02-19T08:05:15.986Z,78.69
2018-02-19T08:06:15.997Z,78.69
2018-02-19T08:07:16.013Z,78.98
2018-02-19T08:08:16.022Z,78.13
2018-02-19T08:09:16.032Z,77.94
2018-02-19T08:10:16.048Z,77.37
2018-02-19T08:11:16.059Z,76.89
2018-02-19T08:12:16.074Z,77.08
2018-02-19T08:13:16.085Z,77.56
2018-02-19T08:14:16.097Z,77.94
2018-02-19T08:15:16.110Z,77.37
2018-02-19T08:16:16.137Z,78.07
2018-02-19T08:17:16.141Z,78.26
2018-02-19T08:18:16.151Z,76.99
2018-02-19T08:19:16.161Z,77.40
2018-02-19T08:20:16.176Z,76.84
2018-02-19T08:21:16.189Z,77.12
2018-02-19T08:22:16.203Z,76.84
2018-02-19T08:23:16.211Z,76.31
2018-02-19T08:24:16.227Z,75.74
2018-02-19T08:25:16.239Z,75.45
2018-02-19T08:26:16.251Z,75.64
2018-02-19T08:27:16.263Z,75.55
2018-02-19T08:28:16.281Z,75.93
2018-02-19T08:29:16.291Z,75.13
2018-02-19T08:30:16.305Z,75.42
2018-02-19T08:31:16.319Z,75.57
2018-02-19T08:32:16.330Z,76.93
2018-02-19T08:33:16.343Z,76.46
2018-02-19T08:34:16.356Z,76.27
2018-02-19T08:35:16.372Z,75.70
2018-02-19T08:36:16.384Z,75.79
2018-02-19T08:37:16.401Z,75.60
2018-02-19T08:38:16.408Z,75.60
2018-02-19T08:39:16.426Z,75.26
2018-02-19T08:40:16.439Z,75.32
2018-02-19T08:41:16.449Z,75.51
2018-02-19T08:42:16.465Z,75.89
2018-02-19T08:43:16.478Z,75.70
2018-02-19T08:44:16.491Z,75.55
2018-02-19T08:45:16.506Z,74.03
2018-02-19T08:46:16.518Z,73.65
2018-02-19T08:47:16.535Z,72.99
2018-02-19T08:48:16.549Z,74.28
2018-02-19T08:49:16.560Z,74.66
2018-02-19T08:50:16.572Z,75.23
2018-02-19T08:51:16.589Z,75.60
2018-02-19T08:52:16.601Z,75.89
2018-02-19T08:53:16.614Z,75.36
2018-02-19T08:54:16.626Z,74.32
2018-02-19T08:55:16.640Z,74.41
2018-02-19T08:56:16.655Z,73.56
2018-02-19T08:57:16.667Z,74.41
2018-02-19T08:58:16.680Z,74.98
2018-02-19T08:59:16.696Z,75.04
2018-02-19T09:00:16.714Z,75.42
2018-02-19T09:01:16.721Z,75.55
2018-02-19T09:02:16.732Z,75.26
2018-02-19T09:03:16.749Z,74.03
2018-02-19T09:04:16.764Z,73.84
2018-02-19T09:05:16.773Z,74.22
2018-02-19T09:06:16.791Z,74.69
2018-02-19T09:07:16.805Z,75.26
2018-02-19T09:08:16.817Z,74.35
2018-02-19T09:09:16.833Z,73.56
2018-02-19T09:10:16.845Z,74.37
2018-02-19T09:11:16.857Z,75.07
2018-02-19T09:12:16.872Z,74.69
2018-02-19T09:13:16.883Z,74.79
2018-02-19T09:14:16.898Z,74.66
2018-02-19T09:15:16.911Z,74.69
2018-02-19T09:16:16.927Z,75.26
2018-02-19T09:17:16.942Z,75.17
2018-02-19T09:18:16.955Z,74.32
2018-02-19T09:19:16.968Z,73.75
2018-02-19T09:20:16.980Z,72.93
2018-02-19T09:21:16.994Z,72.99
2018-02-19T09:22:17.006Z,73.22
2018-02-19T09:23:17.022Z,73.18
2018-02-19T09:24:17.035Z,73.75
2018-02-19T09:25:17.049Z,73.03
2018-02-19T09:26:17.078Z,72.27
2018-02-19T09:27:17.077Z,71.89
2018-02-19T09:28:17.088Z,71.80
2018-02-19T09:29:17.103Z,71.89
2018-02-19T09:30:17.118Z,72.08
2018-02-19T09:31:17.130Z,71.64
2018-02-19T09:32:17.144Z,70.50
2018-02-19T09:33:17.157Z,70.59
2018-02-19T09:34:17.173Z,69.74
2018-02-19T09:35:17.191Z,69.93
2018-02-19T09:36:17.201Z,69.65
2018-02-19T09:37:17.212Z,68.98
2018-02-19T09:38:17.230Z,69.52
2018-02-19T09:39:17.248Z,69.84
2018-02-19T09:40:17.260Z,69.74
2018-02-19T09:41:17.271Z,68.60
2018-02-19T09:42:17.295Z,69.27
2018-02-19T09:43:17.301Z,69.36
2018-02-19T09:44:17.316Z,69.65
2018-02-19T09:45:17.327Z,69.61
2018-02-19T09:46:17.340Z,70.03
2018-02-19T09:47:17.359Z,69.93
2018-02-19T09:48:17.369Z,68.89
2018-02-19T09:49:17.387Z,67.79
2018-02-19T09:50:17.401Z,67.85
2018-02-19T09:51:17.412Z,67.88
2018-02-19T09:52:17.431Z,67.59
2018-02-19T09:53:17.440Z,67.31
2018-02-19T09:54:17.454Z,66.93
2018-02-19T09:55:17.469Z,66.83
2018-02-19T09:56:17.489Z,66.55
2018-02-19T09:57:17.500Z,66.55
2018-02-19T09:58:17.513Z,66.93
2018-02-19T09:59:17.531Z,67.08
2018-02-19T10:00:17.547Z,67.12
2018-02-19T10:01:17.564Z,67.65
2018-02-19T10:02:17.574Z,68.32
2018-02-19T10:03:17.590Z,68.44
2018-02-19T10:04:17.603Z,67.88
2018-02-19T10:05:17.617Z,68.13
2018-02-19T10:06:17.632Z,67.94
2018-02-19T10:07:17.648Z,67.85
2018-02-19T10:08:17.659Z,67.75
2018-02-19T10:09:17.678Z,67.94
2018-02-19T10:10:17.738Z,68.60
2018-02-19T10:11:17.710Z,68.98
2018-02-19T10:12:17.724Z,69.52
2018-02-19T10:13:17.735Z,69.27
2018-02-19T10:14:17.748Z,68.98
2018-02-19T10:15:17.766Z,68.41
2018-02-19T10:16:17.783Z,68.13
2018-02-19T10:17:17.793Z,69.36
2018-02-19T10:18:17.811Z,68.98
2018-02-19T10:19:17.825Z,67.88
2018-02-19T10:20:17.839Z,67.65
2018-02-19T10:21:17.857Z,66.80
2018-02-19T10:22:17.866Z,66.99
2018-02-19T10:23:17.882Z,66.89
2018-02-19T10:24:17.943Z,67.08
2018-02-19T10:25:17.919Z,66.99
2018-02-19T10:26:17.934Z,66.89
2018-02-19T10:27:17.940Z,66.89
2018-02-19T10:28:17.956Z,67.21
2018-02-19T10:29:17.971Z,67.18
2018-02-19T10:30:18.010Z,67.27
2018-02-19T10:31:18.000Z,67.02
2018-02-19T10:32:18.015Z,67.56
2018-02-19T10:33:18.030Z,67.69
2018-02-19T10:34:18.047Z,67.02
2018-02-19T10:35:18.058Z,66.74
2018-02-19T10:36:18.077Z,66.64
2018-02-19T10:37:18.095Z,66.99
2018-02-19T10:38:18.105Z,67.56
2018-02-19T10:39:18.118Z,67.94
2018-02-19T10:40:18.132Z,67.65
2018-02-19T10:41:18.144Z,68.13
2018-02-19T10:42:18.162Z,66.89
2018-02-19T10:43:18.176Z,67.27
2018-02-19T10:44:18.191Z,67.85
2018-02-19T10:45:18.204Z,68.04
2018-02-19T10:46:18.221Z,67.85
2018-02-19T10:47:18.234Z,67.65
2018-02-19T10:48:18.250Z,67.31
2018-02-19T10:49:18.263Z,67.46
2018-02-19T10:50:18.279Z,67.56
2018-02-19T10:51:18.293Z,67.37
2018-02-19T10:52:18.304Z,68.19
2018-02-19T10:53:18.319Z,68.89
2018-02-19T10:54:18.336Z,69.04
2018-02-19T10:55:18.350Z,69.90
2018-02-19T10:56:18.366Z,70.40
2018-02-19T10:57:18.377Z,70.12
2018-02-19T10:58:18.395Z,69.65
2018-02-19T10:59:18.408Z,68.76
2018-02-19T11:00:18.421Z,69.99
2018-02-19T11:01:18.441Z,71.41
2018-02-19T11:02:18.457Z,70.94
2018-02-19T11:03:18.467Z,70.59
2018-02-19T11:04:18.479Z,69.55
2018-02-19T11:05:18.495Z,69.52
2018-02-19T11:06:18.509Z,70.56
2018-02-19T11:07:18.528Z,71.85
2018-02-19T11:08:18.541Z,71.98
2018-02-19T11:09:18.567Z,71.98
2018-02-19T11:10:18.567Z,70.94
2018-02-19T11:11:18.580Z,70.31
2018-02-19T11:12:18.594Z,70.21
2018-02-19T11:13:18.624Z,69.61
2018-02-19T11:14:18.622Z,70.18
2018-02-19T11:15:18.636Z,69.74
2018-02-19T11:16:18.650Z,69.65
2018-02-19T11:17:18.666Z,70.78
2018-02-19T11:18:18.681Z,70.47
2018-02-19T11:19:18.692Z,71.70
2018-02-19T11:20:18.706Z,72.17
2018-02-19T11:21:18.722Z,72.55
2018-02-19T11:22:18.736Z,71.83
2018-02-19T11:23:18.750Z,70.50
2018-02-19T11:24:18.812Z,69.65
2018-02-19T11:25:18.777Z,69.27
2018-02-19T11:26:18.792Z,69.11
2018-02-19T11:27:18.820Z,69.17
2018-02-19T11:28:18.823Z,69.93
2018-02-19T11:29:18.834Z,68.64
2018-02-19T11:30:18.851Z,67.40
2018-02-19T11:31:18.863Z,67.02
2018-02-19T11:32:18.877Z,67.21
2018-02-19T11:33:18.890Z,67.12
2018-02-19T11:34:18.908Z,67.97
2018-02-19T11:35:18.925Z,67.79
2018-02-19T11:36:18.934Z,67.06
2018-02-19T11:37:18.963Z,66.39
2018-02-19T11:38:18.964Z,65.73
2018-02-19T11:39:18.981Z,65.16
2018-02-19T11:40:19.000Z,66.17
2018-02-19T11:41:19.009Z,66.74
2018-02-19T11:42:19.026Z,67.34
2018-02-19T11:43:19.039Z,66.39
2018-02-19T11:44:19.055Z,65.73
2018-02-19T11:45:19.071Z,66.27
2018-02-19T11:46:19.081Z,66.20
2018-02-19T11:47:19.098Z,66.27
2018-02-19T11:48:19.113Z,66.17
2018-02-19T11:49:19.132Z,66.64
2018-02-19T11:50:19.145Z,66.74
2018-02-19T11:51:19.163Z,66.55
2018-02-19T11:52:19.178Z,67.31
2018-02-19T11:53:19.191Z,66.93
2018-02-19T11:54:19.206Z,66.46
2018-02-19T11:55:19.221Z,66.49
2018-02-19T11:56:19.236Z,65.82
2018-02-19T11:57:19.253Z,65.79
2018-02-19T11:58:19.268Z,66.39
2018-02-19T11:59:19.282Z,65.92
2018-02-19T12:00:19.296Z,65.82
2018-02-19T12:01:19.308Z,66.30
2018-02-19T12:02:19.324Z,65.63
2018-02-19T12:03:19.344Z,65.35
2018-02-19T12:04:19.361Z,65.63
2018-02-19T12:05:19.372Z,66.87
2018-02-19T12:06:19.388Z,66.96
2018-02-19T12:07:19.400Z,67.12
2018-02-19T12:08:19.422Z,67.12
2018-02-19T12:09:19.430Z,66.87
2018-02-19T12:10:19.446Z,66.96
2018-02-19T12:11:19.461Z,66.30
2018-02-19T12:12:19.477Z,67.40
2018-02-19T12:13:19.490Z,68.04
2018-02-19T12:14:19.509Z,68.98
2018-02-19T12:15:19.523Z,69.02
2018-02-19T12:16:19.538Z,68.54
2018-02-19T12:17:19.549Z,68.79
2018-02-19T12:18:19.565Z,68.98
2018-02-19T12:19:19.587Z,69.17
2018-02-19T12:20:19.599Z,69.55
2018-02-19T12:21:19.616Z,69.36
2018-02-19T12:22:19.623Z,69.08
2018-02-19T12:23:19.644Z,69.74
2018-02-19T12:24:19.659Z,69.74
2018-02-19T12:25:19.669Z,70.12
2018-02-19T12:26:19.686Z,69.21
2018-02-19T12:27:19.700Z,69.65
2018-02-19T12:28:19.713Z,69.27
2018-02-19T12:29:19.727Z,68.73
2018-02-19T12:30:19.739Z,69.02
2018-02-19T12:31:19.757Z,69.65
2018-02-19T12:32:19.770Z,68.98
2018-02-19T12:33:19.784Z,69.93
2018-02-19T12:34:19.799Z,70.56
2018-02-19T12:35:19.823Z,70.98
2018-02-19T12:36:19.829Z,71.55
2018-02-19T12:37:19.850Z,71.17
2018-02-19T12:38:19.858Z,70.69
2018-02-19T12:39:19.873Z,70.78
2018-02-19T12:40:19.885Z,70.88
2018-02-19T12:41:19.898Z,70.50
2018-02-19T12:42:19.915Z,70.50
2018-02-19T12:43:19.935Z,70.69
2018-02-19T12:44:19.947Z,70.78
2018-02-19T12:45:19.956Z,71.07
2018-02-19T12:46:19.972Z,70.59
2018-02-19T12:47:19.986Z,70.40
2018-02-19T12:48:20.003Z,70.59
2018-02-19T12:49:20.016Z,70.78
2018-02-19T12:50:20.028Z,71.17
2018-02-19T12:51:20.047Z,71.03
2018-02-19T12:52:20.195Z,71.45